Time;durP1;ratioP1;P1;durP2;ratioP2;P2;SDS_P1;SDS_P2;PMS_P1;PMS_P2;Temp;Humidity;BMP_temperature;BMP_pressure;BME280_temperature;BME280_humidity;BME280_pressure;Samples;Min_cycle;Max_cycle;Signal;HPM_P1;HPM_P2
2022/03/01 00:01:13;;;;;;;24.08;4.78;;;;;;;21.61;27.84;102523.19;4216401;28;20032;-41
2022/03/01 00:03:14;;;;;;;24.50;4.03;;;;;;;21.61;28.21;102529.59;4215170;28;20117;-41
2022/03/01 00:05:16;;;;;;;23.83;3.80;;;;;;;21.42;28.19;102497.47;4215667;28;20097;-41
2022/03/01 00:07:20;;;;;;;26.38;5.55;;;;;;;21.60;27.94;102530.69;4203916;28;20048;-41
2022/03/01 00:09:21;;;;;;;32.73;5.53;;;;;;;21.60;27.90;102525.13;4215963;28;20040;-41
2022/03/01 00:11:23;;;;;;;26.95;4.47;;;;;;;21.54;27.83;102510.25;4216101;28;20690;-40
2022/03/01 00:13:24;;;;;;;32.13;3.95;;;;;;;21.60;27.75;102519.56;4217003;28;20552;-41
2022/03/01 00:15:26;;;;;;;27.42;5.13;;;;;;;21.57;28.18;102504.16;4217326;28;20032;-40
2022/03/01 00:17:27;;;;;;;34.03;4.43;;;;;;;21.57;27.83;102503.31;4216325;28;20036;-41
2022/03/01 00:19:32;;;;;;;28.50;4.50;;;;;;;21.54;28.10;102492.69;4219214;28;20036;-41
2022/03/01 00:21:33;;;;;;;30.70;4.95;;;;;;;21.55;28.02;102488.81;4214004;28;20024;-41
2022/03/01 00:23:38;;;;;;;22.95;4.80;;;;;;;21.59;27.74;102494.75;4225903;28;20073;-40
2022/03/01 00:25:39;;;;;;;31.58;5.05;;;;;;;21.58;27.75;102493.91;4214814;28;20085;-42
2022/03/01 00:27:44;;;;;;;34.05;5.25;;;;;;;21.58;27.70;102488.34;4199108;28;20040;-41
2022/03/01 00:29:45;;;;;;;34.03;5.63;;;;;;;21.55;27.81;102478.50;4211371;28;20121;-41
2022/03/01 00:31:46;;;;;;;34.47;5.45;;;;;;;21.58;28.01;102493.91;4214306;28;20532;-41
2022/03/01 00:33:51;;;;;;;27.38;4.78;;;;;;;21.58;27.73;102493.91;4214989;28;20081;-42
2022/03/01 00:35:52;;;;;;;31.20;5.20;;;;;;;21.57;27.64;102495.81;4220461;28;20040;-41
2022/03/01 00:37:57;;;;;;;31.50;4.82;;;;;;;21.56;27.99;102490.50;4222018;28;20132;-41
2022/03/01 00:39:59;;;;;;;31.73;5.30;;;;;;;21.55;27.72;102495.22;4204962;28;20040;-41
2022/03/01 00:42:00;;;;;;;31.55;5.47;;;;;;;21.55;27.92;102499.97;4214463;28;20037;-42
2022/03/01 00:44:02;;;;;;;34.17;5.70;;;;;;;21.54;27.93;102487.13;4220375;28;20036;-41
2022/03/01 00:46:04;;;;;;;40.70;5.82;;;;;;;21.53;27.64;102486.28;4216257;27;20113;-41
2022/03/01 00:48:05;;;;;;;30.40;5.45;;;;;;;21.52;27.76;102481.78;4217358;28;20434;-41
2022/03/01 00:50:08;;;;;;;33.03;5.60;;;;;;;21.49;27.71;102467.53;4215546;28;20044;-41
2022/03/01 00:52:09;;;;;;;38.40;5.15;;;;;;;21.52;27.88;102472.59;4214597;28;20146;-42
2022/03/01 00:54:11;;;;;;;34.35;6.07;;;;;;;21.51;27.58;102470.91;4208735;28;20086;-42
2022/03/01 00:56:12;;;;;;;37.15;5.28;;;;;;;21.50;28.09;102466.44;4202073;28;20086;-42
2022/03/01 00:58:14;;;;;;;32.65;6.28;;;;;;;21.50;27.64;102463.66;4220724;28;20112;-42
2022/03/01 01:00:16;;;;;;;38.08;7.63;;;;;;;21.50;27.94;102469.22;4219690;27;20085;-44
2022/03/01 01:02:17;;;;;;;40.45;5.90;;;;;;;21.47;27.55;102464.13;4213428;28;20032;-44
2022/03/01 01:04:19;;;;;;;40.22;6.78;;;;;;;21.48;27.85;102466.66;4214052;28;20073;-40
2022/03/01 01:06:24;;;;;;;37.33;5.70;;;;;;;21.47;27.81;102470.53;4214641;28;20036;-42
2022/03/01 01:08:28;;;;;;;;;;;;;;;21.45;28.06;102463.56;4210749;28;20094;-41
2022/03/01 01:10:29;;;;;;;29.88;5.22;;;;;;;21.48;27.62;102454.69;4198378;28;19912;-41
2022/03/01 01:12:33;;;;;;;36.30;6.80;;;;;;;21.50;28.06;102470.06;4209799;28;20430;-42
2022/03/01 01:14:34;;;;;;;24.90;5.68;;;;;;;21.50;27.71;102466.44;4212020;28;20036;-42
2022/03/01 01:16:36;;;;;;;33.80;5.68;;;;;;;21.47;27.81;102464.13;4217195;28;20099;-49
2022/03/01 01:18:43;;;;;;;33.05;6.13;;;;;;;21.46;27.74;102468.03;4210617;28;20062;-43
2022/03/01 01:20:44;;;;;;;46.53;6.20;;;;;;;21.46;27.79;102468.03;4200745;28;20117;-41
2022/03/01 01:22:46;;;;;;;30.92;5.55;;;;;;;21.45;27.63;102461.59;4202608;28;20101;-43
2022/03/01 01:24:48;;;;;;;36.78;6.63;;;;;;;21.45;27.66;102455.19;4213232;28;20105;-41
2022/03/01 01:26:49;;;;;;;47.75;6.13;;;;;;;21.42;27.75;102456.53;4205781;28;20040;-42
2022/03/01 01:28:51;;;;;;;32.83;6.05;;;;;;;21.42;27.74;102461.25;4209833;28;20040;-42
2022/03/01 01:30:52;;;;;;;37.67;5.43;;;;;;;21.43;27.68;102457.38;4215083;28;20568;-41
2022/03/01 01:32:54;;;;;;;32.70;5.43;;;;;;;21.41;27.87;102462.34;4215100;28;20040;-42
2022/03/01 01:34:55;;;;;;;34.05;5.60;;;;;;;21.41;27.93;102454.00;4215138;28;20044;-41
2022/03/01 01:36:57;;;;;;;28.88;5.43;;;;;;;21.42;27.83;102462.09;4215810;28;20078;-44
2022/03/01 01:38:58;;;;;;;46.40;6.95;;;;;;;21.40;27.96;102455.09;4215888;28;20048;-44
2022/03/01 01:41:00;;;;;;;34.65;5.47;;;;;;;21.40;27.77;102457.88;4214282;28;20483;-41
2022/03/01 01:43:05;;;;;;;28.13;5.60;;;;;;;21.38;27.89;102460.06;4215236;28;20101;-42
2022/03/01 01:45:07;;;;;;;37.47;6.13;;;;;;;21.39;27.94;102461.75;4215282;28;20028;-44
2022/03/01 01:47:09;;;;;;;34.92;6.40;;;;;;;21.39;27.71;102453.38;4214931;28;20115;-43
2022/03/01 01:49:13;;;;;;;33.50;5.95;;;;;;;21.38;27.75;102454.47;4212303;28;20551;-42
2022/03/01 01:51:14;;;;;;;35.30;5.60;;;;;;;21.38;27.56;102454.47;4211408;28;20040;-43
2022/03/01 01:53:16;;;;;;;42.10;5.65;;;;;;;21.37;27.75;102452.81;4214806;28;20078;-44
2022/03/01 01:55:19;;;;;;;35.83;5.65;;;;;;;21.37;28.00;102455.59;4214949;28;20082;-45
2022/03/01 01:57:25;;;;;;;36.53;6.47;;;;;;;21.34;27.87;102442.16;4219346;28;20047;-44
2022/03/01 01:59:26;;;;;;;23.60;5.90;;;;;;;21.35;27.50;102454.97;4203027;28;20094;-43
2022/03/01 02:01:28;;;;;;;39.22;6.93;;;;;;;21.34;28.01;102448.56;4197824;28;20092;-42
2022/03/01 02:03:29;;;;;;;37.78;6.70;;;;;;;21.33;27.81;102446.03;4213373;28;20089;-47
2022/03/01 02:05:31;;;;;;;36.78;5.68;;;;;;;21.33;27.78;102455.22;4203431;28;20040;-41
2022/03/01 02:07:32;;;;;;;33.75;6.15;;;;;;;21.29;27.65;102448.44;4202017;28;20395;-42
2022/03/01 02:09:34;;;;;;;39.13;6.13;;;;;;;21.31;27.79;102449.91;4198130;28;20040;-43
2022/03/01 02:11:35;;;;;;;34.80;6.30;;;;;;;21.33;27.65;102448.81;4201134;28;20049;-43
2022/03/01 02:13:46;;;;;;;29.75;6.00;;;;;;;21.30;27.72;102448.19;4197984;28;20021;-46
2022/03/01 02:15:48;;;;;;;36.65;6.30;;;;;;;21.32;28.07;102445.19;4198287;28;20094;-43
2022/03/01 02:17:49;;;;;;;39.50;5.10;;;;;;;21.31;27.80;102432.38;4212647;28;20110;-43
2022/03/01 02:19:51;;;;;;;32.80;5.65;;;;;;;21.30;27.84;102431.50;4213197;28;20032;-44
2022/03/01 02:21:55;;;;;;;30.65;6.32;;;;;;;21.30;28.14;102442.63;4214782;28;20437;-43
2022/03/01 02:23:59;;;;;;;32.13;5.60;;;;;;;21.29;27.82;102440.91;4210336;28;20112;-43
2022/03/01 02:26:00;;;;;;;36.28;6.07;;;;;;;21.30;27.89;102437.06;4215939;28;20120;-48
2022/03/01 02:28:03;;;;;;;33.88;7.20;;;;;;;21.29;28.14;102434.50;4226650;27;20044;-42
2022/03/01 02:30:06;;;;;;;26.48;5.32;;;;;;;21.25;27.94;102433.31;4215247;28;20560;-42
2022/03/01 02:32:09;;;;;;;30.73;5.75;;;;;;;21.26;27.71;102430.28;4209930;28;20448;-43
2022/03/01 02:34:11;;;;;;;30.38;6.38;;;;;;;21.27;28.01;102448.69;4221984;28;20046;-44
2022/03/01 02:36:15;;;;;;;34.40;5.60;;;;;;;21.25;27.82;102430.53;4212558;27;20108;-43
2022/03/01 02:38:17;;;;;;;24.35;4.80;;;;;;;21.23;27.95;102430.78;4210050;28;20062;-42
2022/03/01 02:40:19;;;;;;;24.27;6.38;;;;;;;21.23;28.12;102436.34;4211516;28;20078;-41
2022/03/01 02:42:21;;;;;;;29.88;5.50;;;;;;;21.22;27.98;102437.44;4201910;28;20406;-43
2022/03/01 02:44:23;;;;;;;28.75;5.50;;;;;;;21.23;28.18;102447.47;4210193;28;20113;-40
2022/03/01 02:46:24;;;;;;;25.25;5.68;;;;;;;21.22;28.00;102448.56;4211670;28;20024;-41
2022/03/01 02:48:25;;;;;;;24.08;5.00;;;;;;;21.21;28.10;102449.69;4203855;28;20097;-41
2022/03/01 02:50:30;;;;;;;27.50;6.07;;;;;;;21.21;28.11;102444.13;4212143;28;20048;-41
2022/03/01 02:52:31;;;;;;;28.13;5.83;;;;;;;21.20;27.89;102447.97;4210846;28;20113;-43
2022/03/01 02:54:33;;;;;;;30.83;5.65;;;;;;;21.21;28.27;102443.25;4208152;28;20041;-42
2022/03/01 02:56:35;;;;;;;28.35;5.53;;;;;;;21.21;28.30;102443.25;4215288;28;20356;-45
2022/03/01 02:58:36;;;;;;;25.80;5.75;;;;;;;21.20;28.18;102442.41;4202853;28;20097;-43
2022/03/01 03:00:38;;;;;;;28.65;5.68;;;;;;;21.19;27.91;102437.94;4207558;28;20036;-42
2022/03/01 03:02:40;;;;;;;27.75;5.75;;;;;;;21.18;28.02;102436.25;4208672;28;20039;-42
2022/03/01 03:04:42;;;;;;;21.33;5.10;;;;;;;21.19;28.30;102434.31;4201607;28;20056;-40
2022/03/01 03:06:43;;;;;;;21.27;5.22;;;;;;;21.16;27.82;102424.50;4212314;28;20036;-41
2022/03/01 03:08:48;;;;;;;21.08;6.65;;;;;;;21.19;28.09;102431.53;4213429;28;20105;-42
2022/03/01 03:10:49;;;;;;;20.90;4.43;;;;;;;21.17;27.84;102440.13;4209791;28;20040;-40
2022/03/01 03:12:53;;;;;;;22.63;5.70;;;;;;;21.10;27.80;102428.28;4208649;28;20032;-42
2022/03/01 03:14:55;;;;;;;20.13;5.20;;;;;;;21.12;27.85;102439.16;4199297;28;20085;-41
2022/03/01 03:16:57;;;;;;;23.17;5.28;;;;;;;21.14;28.14;102439.75;4196915;28;20036;-49
2022/03/01 03:18:58;;;;;;;22.83;5.88;;;;;;;21.13;28.29;102435.31;4206097;28;20093;-42
2022/03/01 03:21:00;;;;;;;25.23;5.35;;;;;;;21.13;28.10;102447.28;4217019;28;20085;-42
2022/03/01 03:23:01;;;;;;;21.63;5.03;;;;;;;21.12;28.19;102453.94;4217586;28;20390;-42
2022/03/01 03:25:04;;;;;;;22.95;5.72;;;;;;;21.11;28.04;102449.44;4217555;28;20148;-43
2022/03/01 03:27:06;;;;;;;23.88;5.88;;;;;;;21.07;28.21;102453.81;4215132;28;20148;-42
2022/03/01 03:29:08;;;;;;;18.08;5.07;;;;;;;21.10;28.38;102456.09;4217333;28;20040;-41
2022/03/01 03:31:09;;;;;;;22.45;5.65;;;;;;;21.10;28.07;102458.88;4216447;28;20445;-40
2022/03/01 03:33:11;;;;;;;23.52;4.75;;;;;;;21.06;28.09;102452.13;4200509;28;20028;-41
2022/03/01 03:35:12;;;;;;;15.40;4.65;;;;;;;21.06;28.22;102472.44;4206334;28;20074;-42
2022/03/01 03:37:16;;;;;;;28.00;5.22;;;;;;;21.06;27.90;102477.16;4217255;28;20066;-41
2022/03/01 03:39:18;;;;;;;13.40;4.38;;;;;;;21.04;28.10;102494.13;4211692;28;20199;-42
2022/03/01 03:41:20;;;;;;;28.05;5.00;;;;;;;21.00;28.45;102492.06;4208654;28;20036;-41
2022/03/01 03:43:22;;;;;;;23.63;4.82;;;;;;;21.01;28.38;102511.31;4215198;28;20093;-41
2022/03/01 03:45:23;;;;;;;16.70;4.82;;;;;;;21.04;28.22;102509.97;4217157;28;20032;-41
2022/03/01 03:47:24;;;;;;;17.58;4.22;;;;;;;21.03;28.20;102508.28;4216834;28;20032;-42
2022/03/01 03:49:26;;;;;;;21.70;5.50;;;;;;;21.01;28.43;102510.47;4216245;28;20086;-42
2022/03/01 03:51:27;;;;;;;18.30;5.05;;;;;;;21.03;28.21;102508.28;4216150;28;20047;-41
2022/03/01 03:53:29;;;;;;;19.92;3.97;;;;;;;21.02;28.61;102506.56;4216791;28;20044;-41
2022/03/01 03:55:30;;;;;;;17.38;3.97;;;;;;;21.01;28.81;102507.69;4216871;28;20032;-41
2022/03/01 03:57:33;;;;;;;19.05;4.35;;;;;;;20.98;28.40;102510.94;4216893;28;20024;-41
2022/03/01 03:59:36;;;;;;;21.73;4.75;;;;;;;20.99;28.51;102509.88;4211189;28;20032;-41
2022/03/01 04:01:37;;;;;;;14.98;4.45;;;;;;;20.98;28.46;102506.25;4215281;28;20105;-41
2022/03/01 04:03:39;;;;;;;15.02;4.32;;;;;;;20.97;28.86;102504.53;4214641;28;20078;-41
2022/03/01 04:05:40;;;;;;;19.67;4.13;;;;;;;20.97;28.85;102509.25;4216571;28;20040;-40
2022/03/01 04:07:46;;;;;;;16.77;4.90;;;;;;;20.96;28.60;102502.00;4217076;28;20040;-41
2022/03/01 04:09:48;;;;;;;14.23;3.70;;;;;;;20.95;28.40;102501.16;4218336;28;20096;-41
2022/03/01 04:11:49;;;;;;;14.10;4.10;;;;;;;20.96;28.45;102496.44;4220110;27;20113;-41
2022/03/01 04:13:51;;;;;;;17.50;3.63;;;;;;;20.95;28.56;102494.75;4217146;28;20036;-41
2022/03/01 04:15:53;;;;;;;16.80;4.05;;;;;;;20.93;28.69;102488.56;4216525;28;20040;-42
2022/03/01 04:17:55;;;;;;;19.70;4.38;;;;;;;20.94;29.15;102484.72;4209486;28;20040;-40
2022/03/01 04:19:56;;;;;;;12.75;4.30;;;;;;;20.91;29.00;102477.69;4200974;28;20040;-40
2022/03/01 04:21:58;;;;;;;15.75;4.28;;;;;;;20.93;29.15;102481.06;4205327;28;20487;-41
2022/03/01 04:23:59;;;;;;;14.80;4.18;;;;;;;20.93;29.24;102471.88;4212142;28;20031;-41
2022/03/01 04:26:00;;;;;;;14.35;4.07;;;;;;;20.92;29.44;102479.38;4208421;28;20044;-41
2022/03/01 04:28:02;;;;;;;14.35;3.78;;;;;;;20.91;29.35;102477.69;4216626;28;20056;-41
2022/03/01 04:30:04;;;;;;;13.85;3.65;;;;;;;20.91;29.70;102485.19;4215560;28;20040;-43
2022/03/01 04:32:06;;;;;;;13.10;4.10;;;;;;;20.88;29.55;102477.31;4215745;28;20532;-42
2022/03/01 04:34:08;;;;;;;19.98;3.85;;;;;;;20.90;29.70;102481.56;4215312;28;20035;-39
2022/03/01 04:36:10;;;;;;;10.85;3.65;;;;;;;20.86;29.69;102474.78;4216027;28;20040;-41
2022/03/01 04:38:14;;;;;;;15.23;4.05;;;;;;;20.87;30.09;102481.19;4216437;28;20435;-41
2022/03/01 04:40:17;;;;;;;14.60;3.80;;;;;;;20.89;30.04;102479.00;4216092;28;20438;-41
2022/03/01 04:42:19;;;;;;;11.32;3.92;;;;;;;20.88;29.69;102478.16;4216685;28;20372;-41
2022/03/01 04:44:20;;;;;;;14.27;3.38;;;;;;;20.87;29.84;102481.19;4216751;28;20035;-40
2022/03/01 04:46:22;;;;;;;9.90;3.40;;;;;;;20.87;30.08;102481.19;4216304;28;20036;-41
2022/03/01 04:48:24;;;;;;;11.77;3.30;;;;;;;20.85;29.98;102481.44;4214872;28;20028;-42
2022/03/01 04:50:26;;;;;;;8.82;3.22;;;;;;;20.85;30.36;102481.44;4215739;28;20560;-42
2022/03/01 04:52:31;;;;;;;11.23;3.55;;;;;;;20.85;30.55;102477.78;4215989;28;20044;-42
2022/03/01 04:54:32;;;;;;;11.65;3.17;;;;;;;20.86;30.38;102485.06;4216278;28;20044;-42
2022/03/01 04:56:34;;;;;;;9.88;3.28;;;;;;;20.84;30.61;102488.09;4214818;28;20094;-41
2022/03/01 04:58:35;;;;;;;12.65;3.28;;;;;;;20.85;30.84;102488.91;4215148;28;20040;-41
2022/03/01 05:00:37;;;;;;;11.25;3.20;;;;;;;20.84;31.10;102484.47;4215251;28;20433;-42
2022/03/01 05:02:43;;;;;;;11.02;3.47;;;;;;;20.83;31.06;102480.00;4215987;28;20048;-41
2022/03/01 05:04:45;;;;;;;13.20;3.88;;;;;;;20.83;31.09;102468.84;4215857;28;20497;-43
2022/03/01 05:06:47;;;;;;;7.82;3.25;;;;;;;20.84;31.36;102470.53;4216089;28;20039;-42
2022/03/01 05:08:49;;;;;;;8.60;2.88;;;;;;;20.81;31.25;102467.16;4215403;28;20089;-42
2022/03/01 05:10:50;;;;;;;9.60;3.20;;;;;;;20.81;31.40;102463.53;4215567;28;20085;-42
2022/03/01 05:12:54;;;;;;;8.02;2.90;;;;;;;20.80;31.57;102454.34;4215605;28;20040;-43
2022/03/01 05:14:56;;;;;;;16.07;3.63;;;;;;;20.79;31.30;102449.88;4215515;28;20048;-40
2022/03/01 05:16:57;;;;;;;9.30;3.10;;;;;;;20.81;31.28;102460.75;4216073;28;20036;-41
2022/03/01 05:18:58;;;;;;;10.13;2.60;;;;;;;20.80;31.44;102462.72;4215918;28;20056;-41
2022/03/01 05:21:00;;;;;;;10.85;3.53;;;;;;;20.79;31.39;102466.56;4215640;28;20370;-40
2022/03/01 05:23:01;;;;;;;9.35;3.00;;;;;;;20.76;31.16;102463.44;4215531;28;20044;-39
2022/03/01 05:25:09;;;;;;;9.13;2.97;;;;;;;20.78;31.20;102466.81;4215642;28;20097;-41
2022/03/01 05:27:10;;;;;;;11.55;2.65;;;;;;;20.78;31.19;102467.66;4216154;28;20040;-40
2022/03/01 05:29:12;;;;;;;7.45;2.78;;;;;;;20.73;31.46;102470.31;4216204;28;20065;-40
2022/03/01 05:31:13;;;;;;;13.18;3.28;;;;;;;20.72;31.49;102474.19;4207347;28;20098;-40
2022/03/01 05:33:14;;;;;;;9.40;2.22;;;;;;;20.77;31.47;102487.38;4201994;28;20106;-43
2022/03/01 05:35:17;;;;;;;6.28;2.67;;;;;;;20.73;31.43;102478.66;4215684;28;20540;-41
2022/03/01 05:37:19;;;;;;;6.63;2.45;;;;;;;20.76;31.58;102494.03;4214813;28;20032;-41
2022/03/01 05:39:21;;;;;;;6.22;2.42;;;;;;;20.76;31.57;102492.09;4215557;28;20028;-40
2022/03/01 05:41:24;;;;;;;6.53;2.72;;;;;;;20.69;31.80;102477.44;4214774;28;20089;-41
2022/03/01 05:43:25;;;;;;;8.65;2.67;;;;;;;20.75;31.62;102486.75;4215611;28;20110;-40
2022/03/01 05:45:27;;;;;;;6.82;2.20;;;;;;;20.74;31.44;102493.41;4215468;28;20491;-41
2022/03/01 05:47:29;;;;;;;9.77;3.28;;;;;;;20.73;31.64;102508.41;4215635;28;20483;-41
2022/03/01 05:49:33;;;;;;;6.05;2.30;;;;;;;20.73;31.29;102514.81;4215267;28;20101;-40
2022/03/01 05:51:35;;;;;;;5.15;2.67;;;;;;;20.72;31.64;102518.72;4214891;28;20052;-40
2022/03/01 05:53:36;;;;;;;6.18;2.50;;;;;;;20.71;31.53;102514.25;4214945;28;20036;-42
2022/03/01 05:55:38;;;;;;;9.68;3.33;;;;;;;20.71;31.35;102511.44;4215177;28;20112;-42
2022/03/01 05:57:39;;;;;;;6.75;2.83;;;;;;;20.67;31.62;102514.97;4215276;28;20540;-40
2022/03/01 05:59:41;;;;;;;7.63;2.45;;;;;;;20.68;31.71;102505.53;4214191;28;20039;-42
2022/03/01 06:01:42;;;;;;;7.55;2.30;;;;;;;20.69;31.45;102521.97;4214592;28;20040;-42
2022/03/01 06:03:44;;;;;;;4.60;2.50;;;;;;;20.68;31.21;102527.78;4215417;28;20044;-40
2022/03/01 06:05:45;;;;;;;8.02;2.58;;;;;;;20.66;31.48;102514.09;4215149;28;20052;-41
2022/03/01 06:07:47;;;;;;;10.55;2.72;;;;;;;20.66;31.37;102525.22;4213353;28;20036;-42
2022/03/01 06:09:48;;;;;;;9.10;2.60;;;;;;;20.65;31.26;102523.53;4215253;28;20036;-41
2022/03/01 06:11:49;;;;;;;7.70;2.20;;;;;;;20.65;31.24;102523.53;4214622;28;20028;-41
2022/03/01 06:13:51;;;;;;;7.25;2.30;;;;;;;20.65;31.17;102520.75;4215445;28;20039;-39
2022/03/01 06:15:52;;;;;;;6.85;2.55;;;;;;;20.65;31.25;102520.75;4215057;28;20081;-40
2022/03/01 06:17:54;;;;;;;4.55;2.40;;;;;;;20.64;31.11;102509.88;4215218;28;20101;-42
2022/03/01 06:19:55;;;;;;;3.75;1.80;;;;;;;20.64;31.10;102509.88;4214916;28;20066;-41
2022/03/01 06:21:59;;;;;;;5.93;2.25;;;;;;;20.56;31.21;102508.28;4214734;28;20036;-41
2022/03/01 06:24:02;;;;;;;6.40;2.77;;;;;;;20.63;31.24;102513.75;4215053;28;20035;-42
2022/03/01 06:26:04;;;;;;;4.10;2.00;;;;;;;20.61;31.46;102516.75;4213731;28;20791;-41
2022/03/01 06:28:05;;;;;;;7.60;2.50;;;;;;;20.61;31.36;102519.53;4215048;28;20040;-41
2022/03/01 06:30:08;;;;;;;4.93;2.00;;;;;;;20.60;31.15;102520.63;4215020;28;20105;-41
2022/03/01 06:32:09;;;;;;;3.70;2.10;;;;;;;20.59;31.16;102502.25;4214202;28;20052;-40
2022/03/01 06:34:11;;;;;;;4.97;2.58;;;;;;;20.59;30.82;102493.91;4214824;28;20086;-43
2022/03/01 06:36:12;;;;;;;5.82;2.22;;;;;;;20.60;31.14;102491.97;4214868;28;20101;-41
2022/03/01 06:38:14;;;;;;;4.93;1.90;;;;;;;20.55;31.18;102489.91;4214440;28;20321;-42
2022/03/01 06:40:15;;;;;;;6.97;1.85;;;;;;;20.58;30.94;102500.56;4213692;28;20035;-40
2022/03/01 06:42:18;;;;;;;4.15;2.10;;;;;;;20.48;30.80;102478.91;4214399;28;20040;-41
2022/03/01 06:44:20;;;;;;;4.18;1.67;;;;;;;20.57;30.77;102496.06;4214404;28;20537;-41
2022/03/01 06:46:21;;;;;;;5.55;2.25;;;;;;;20.54;30.75;102486.28;4214307;28;20113;-40
2022/03/01 06:48:23;;;;;;;5.80;2.05;;;;;;;20.51;30.64;102472.84;4214415;28;20115;-41
2022/03/01 06:50:25;;;;;;;4.82;1.88;;;;;;;20.54;31.21;102482.66;4213953;28;20048;-41
2022/03/01 06:52:31;;;;;;;5.28;1.70;;;;;;;20.50;30.60;102467.53;4213871;28;20032;-41
2022/03/01 06:54:32;;;;;;;3.42;1.95;;;;;;;20.53;31.06;102480.97;4214219;28;20487;-41
2022/03/01 06:56:33;;;;;;;3.47;1.92;;;;;;;20.52;30.86;102484.81;4214303;28;20501;-41
2022/03/01 06:58:35;;;;;;;3.45;1.73;;;;;;;20.51;31.01;102483.13;4214401;28;20481;-42
2022/03/01 07:00:36;;;;;;;3.92;1.67;;;;;;;20.48;30.73;102481.69;4213935;28;20036;-42
2022/03/01 07:02:38;;;;;;;6.95;1.80;;;;;;;20.48;30.86;102484.47;4214016;28;20397;-41
2022/03/01 07:04:40;;;;;;;4.68;1.73;;;;;;;20.49;30.80;102479.75;4213521;28;20113;-41
2022/03/01 07:06:41;;;;;;;6.55;2.00;;;;;;;20.48;30.80;102486.38;4214156;28;20039;-40
2022/03/01 07:08:45;;;;;;;4.18;1.90;;;;;;;20.48;30.84;102494.72;4213768;28;20040;-42
2022/03/01 07:10:50;;;;;;;5.10;1.73;;;;;;;20.45;30.59;102484.91;4213625;28;20093;-40
2022/03/01 07:12:51;;;;;;;4.28;1.90;;;;;;;20.43;30.76;102481.50;4214074;28;20426;-39
2022/03/01 07:14:53;;;;;;;2.65;1.80;;;;;;;20.46;30.38;102481.03;4214451;28;20089;-41
2022/03/01 07:16:54;;;;;;;3.33;1.88;;;;;;;20.46;30.32;102480.19;4214203;28;20471;-42
2022/03/01 07:18:56;;;;;;;5.72;2.17;;;;;;;20.46;30.40;102474.63;4214281;28;20537;-41
2022/03/01 07:20:57;;;;;;;2.58;1.60;;;;;;;20.43;30.85;102475.09;4212381;28;20081;-41
2022/03/01 07:22:58;;;;;;;4.10;1.83;;;;;;;20.43;30.64;102477.88;4214200;28;20027;-41
2022/03/01 07:25:00;;;;;;;4.63;1.63;;;;;;;20.41;30.65;102467.03;4214541;28;20048;-40
2022/03/01 07:27:02;;;;;;;4.22;1.77;;;;;;;20.41;30.54;102461.47;4213917;28;20556;-40
2022/03/01 07:29:03;;;;;;;2.15;1.50;;;;;;;20.42;30.45;102456.75;4214035;28;20040;-40
2022/03/01 07:31:04;;;;;;;4.15;1.60;;;;;;;20.40;30.64;102458.94;4214036;28;20360;-41
2022/03/01 07:33:06;;;;;;;3.13;1.83;;;;;;;20.39;30.35;102457.22;4213940;28;20040;-41
2022/03/01 07:35:07;;;;;;;4.13;1.88;;;;;;;20.39;30.42;102462.78;4213032;28;20028;-41
2022/03/01 07:37:09;;;;;;;2.75;1.58;;;;;;;20.39;30.40;102457.22;4214202;28;20036;-42
2022/03/01 07:39:10;;;;;;;2.08;1.33;;;;;;;20.37;30.48;102460.25;4214174;28;20479;-40
2022/03/01 07:41:12;;;;;;;3.55;1.60;;;;;;;20.35;30.41;102451.31;4213647;28;20036;-42
2022/03/01 07:43:13;;;;;;;3.70;1.85;;;;;;;20.36;30.37;102452.16;4213806;28;20093;-41
2022/03/01 07:45:15;;;;;;;2.75;1.70;;;;;;;20.34;30.61;102449.59;4214130;28;20040;-41
2022/03/01 07:47:16;;;;;;;3.20;1.42;;;;;;;20.33;30.43;102455.41;4214078;28;20467;-42
2022/03/01 07:49:17;;;;;;;2.72;1.42;;;;;;;20.31;30.23;102450.94;4213937;28;20028;-40
2022/03/01 07:51:19;;;;;;;4.38;1.60;;;;;;;20.31;30.17;102447.31;4213498;28;20102;-42
2022/03/01 07:53:20;;;;;;;2.95;1.70;;;;;;;20.30;30.50;102449.25;4213854;28;20040;-40
2022/03/01 07:55:24;;;;;;;2.53;1.70;;;;;;;20.29;30.23;102450.31;4213913;28;20073;-39
2022/03/01 07:57:26;;;;;;;3.92;1.75;;;;;;;20.29;30.26;102450.31;4213782;28;20114;-41
2022/03/01 07:59:28;;;;;;;2.83;1.73;;;;;;;20.26;30.02;102450.81;4214111;28;20093;-44
2022/03/01 08:01:29;;;;;;;5.25;1.80;;;;;;;20.25;30.26;102449.13;4213954;28;20032;-46
2022/03/01 08:03:31;;;;;;;1.70;1.30;;;;;;;20.26;30.44;102449.97;4213630;28;20056;-40
2022/03/01 08:05:35;;;;;;;1.95;1.63;;;;;;;20.23;30.31;102448.50;4216691;28;20040;-42
2022/03/01 08:07:36;;;;;;;3.33;1.45;;;;;;;20.24;30.23;102450.19;4216940;28;20109;-40
2022/03/01 08:09:39;;;;;;;2.97;1.58;;;;;;;20.22;30.28;102441.25;4216644;28;20094;-41
2022/03/01 08:11:40;;;;;;;3.75;1.60;;;;;;;20.23;30.01;102431.00;4214481;28;20032;-40
2022/03/01 08:13:42;;;;;;;4.75;1.50;;;;;;;20.16;30.38;102414.44;4216812;28;20044;-41
2022/03/01 08:15:44;;;;;;;3.25;1.80;;;;;;;20.21;30.37;102422.91;4216777;28;20032;-41
2022/03/01 08:17:50;;;;;;;3.33;1.75;;;;;;;20.18;30.14;102426.16;4216348;28;20144;-40
2022/03/01 08:19:51;;;;;;;2.25;1.50;;;;;;;20.19;30.25;102425.06;4216193;28;20093;-40
2022/03/01 08:21:53;;;;;;;1.70;1.50;;;;;;;20.18;30.16;102426.16;4216239;28;20553;-40
2022/03/01 08:23:54;;;;;;;3.17;1.60;;;;;;;20.17;30.27;102420.84;4215280;28;20085;-41
2022/03/01 08:25:56;;;;;;;2.80;1.80;;;;;;;20.14;29.95;102413.81;4216612;28;20044;-41
2022/03/01 08:28:00;;;;;;;2.80;1.27;;;;;;;20.15;29.97;102418.28;4215956;28;20035;-41
2022/03/01 08:30:01;;;;;;;3.75;1.40;;;;;;;20.16;30.01;102405.22;4216588;28;20036;-41
2022/03/01 08:32:06;;;;;;;2.78;1.50;;;;;;;20.12;29.94;102396.53;4216161;28;20475;-42
2022/03/01 08:34:08;;;;;;;2.45;1.25;;;;;;;20.13;29.92;102409.34;4216689;28;20537;-42
2022/03/01 08:36:12;;;;;;;2.35;1.38;;;;;;;20.13;30.31;102408.50;4216287;28;20043;-42
2022/03/01 08:38:14;;;;;;;2.33;1.40;;;;;;;20.12;29.95;102402.09;4216426;28;20572;-41
2022/03/01 08:40:18;;;;;;;3.55;1.75;;;;;;;20.07;30.33;102396.44;4216257;28;20040;-40
2022/03/01 08:42:20;;;;;;;2.97;1.73;;;;;;;20.11;30.14;102405.94;4215163;28;20044;-41
2022/03/01 08:44:22;;;;;;;3.40;1.52;;;;;;;20.11;30.39;102410.66;4216060;28;20518;-40
2022/03/01 08:46:26;;;;;;;4.47;1.25;;;;;;;20.09;29.97;102402.56;4216499;28;20036;-42
2022/03/01 08:48:27;;;;;;;1.67;1.38;;;;;;;20.08;30.21;102414.78;4216063;28;20482;-42
2022/03/01 08:50:29;;;;;;;2.28;1.50;;;;;;;20.08;30.30;102400.03;4215383;28;20109;-41
2022/03/01 08:52:31;;;;;;;2.33;1.60;;;;;;;20.08;30.20;102400.03;4216121;28;20097;-41
2022/03/01 08:54:32;;;;;;;3.25;1.42;;;;;;;20.06;30.20;102403.03;4215708;28;20099;-41
2022/03/01 08:56:34;;;;;;;2.65;1.75;;;;;;;20.05;30.14;102395.81;4208647;28;20090;-40
2022/03/01 08:58:35;;;;;;;2.80;1.17;;;;;;;20.06;30.24;102403.03;4214771;28;20036;-42
2022/03/01 09:00:36;;;;;;;1.75;1.40;;;;;;;20.00;29.98;102388.19;4215694;28;20033;-42
2022/03/01 09:02:38;;;;;;;1.63;1.20;;;;;;;20.01;30.09;102392.66;4215743;28;20085;-42
2022/03/01 09:04:39;;;;;;;2.70;1.50;;;;;;;20.02;30.05;102401.81;4216609;28;20032;-41
2022/03/01 09:06:41;;;;;;;1.75;1.52;;;;;;;20.00;29.85;102407.63;4212541;28;20061;-41
2022/03/01 09:08:42;;;;;;;1.83;1.50;;;;;;;20.00;30.18;102410.41;4202987;28;20102;-40
2022/03/01 09:10:44;;;;;;;2.10;1.52;;;;;;;19.99;30.01;102403.16;4215113;28;20101;-44
2022/03/01 09:12:45;;;;;;;2.35;1.17;;;;;;;19.99;29.94;102405.94;4215528;28;20104;-41
2022/03/01 09:14:47;;;;;;;2.47;1.63;;;;;;;19.99;29.95;102407.88;4215195;28;20040;-42
2022/03/01 09:16:48;;;;;;;2.30;1.30;;;;;;;19.97;30.00;102410.03;4214402;28;20043;-40
2022/03/01 09:18:49;;;;;;;2.25;1.40;;;;;;;19.96;30.16;102414.75;4197042;28;20519;-42
2022/03/01 09:20:51;;;;;;;2.08;1.30;;;;;;;19.92;30.00;102398.81;4214970;28;20062;-41
2022/03/01 09:22:54;;;;;;;2.28;1.50;;;;;;;19.92;29.92;102410.75;4215527;28;20058;-42
2022/03/01 09:24:55;;;;;;;1.50;1.40;;;;;;;19.94;29.81;102416.94;4212421;28;20066;-41